Time;durP1;ratioP1;P1;durP2;ratioP2;P2;SDS_P1;SDS_P2;PMS_P1;PMS_P2;Temp;Humidity;BMP_temperature;BMP_pressure;BME280_temperature;BME280_humidity;BME280_pressure;Samples;Min_cycle;Max_cycle;Signal;HPM_P1;HPM_P2
2021/04/20 00:02:33;;;;;;;17.27;12.47;;;;;;;;;;4993429;28;20203;-71
2021/04/20 00:05:37;;;;;;;16.20;11.90;;;;;;;;;;5010677;28;20213;-71
2021/04/20 00:08:42;;;;;;;16.53;12.33;;;;;;;;;;5008537;28;20229;-71
2021/04/20 00:11:46;;;;;;;16.87;11.77;;;;;;;;;;5011676;28;20193;-71
2021/04/20 00:14:50;;;;;;;18.07;11.60;;;;;;;;;;4997154;28;20221;-71
2021/04/20 00:17:57;;;;;;;15.30;11.47;;;;;;;;;;4981455;28;20634;-71
2021/04/20 00:21:01;;;;;;;16.63;11.53;;;;;;;;;;4993929;28;20174;-71
2021/04/20 00:24:05;;;;;;;17.00;12.07;;;;;;;;;;5001656;28;20197;-71
2021/04/20 00:27:10;;;;;;;16.87;11.80;;;;;;;;;;5012621;28;20178;-71
2021/04/20 00:30:14;;;;;;;16.30;11.30;;;;;;;;;;5013396;28;20181;-71
2021/04/20 00:33:20;;;;;;;17.50;12.53;;;;;;;;;;5009770;28;20186;-71
2021/04/20 00:36:24;;;;;;;17.73;12.90;;;;;;;;;;4993357;28;20226;-71
2021/04/20 00:39:28;;;;;;;18.70;13.43;;;;;;;;;;5009418;28;20668;-71
2021/04/20 00:42:46;;;;;;;19.17;13.20;;;;;;;;;;5011935;28;20197;-71
2021/04/20 00:45:51;;;;;;;18.73;13.20;;;;;;;;;;4998828;28;20225;-71
2021/04/20 00:48:55;;;;;;;16.03;12.57;;;;;;;;;;5007371;28;20183;-71
2021/04/20 00:51:59;;;;;;;17.67;12.63;;;;;;;;;;5013645;28;20193;-71
2021/04/20 00:55:05;;;;;;;16.27;12.63;;;;;;;;;;5000432;28;20218;-71
2021/04/20 00:58:10;;;;;;;17.07;12.70;;;;;;;;;;4996085;28;20190;-71
2021/04/20 01:01:14;;;;;;;17.17;12.57;;;;;;;;;;4995698;28;20185;-71
2021/04/20 01:04:19;;;;;;;19.97;13.47;;;;;;;;;;5006737;28;20194;-71
2021/04/20 01:07:24;;;;;;;19.50;13.80;;;;;;;;;;5015346;28;20197;-71
2021/04/20 01:10:28;;;;;;;18.73;13.13;;;;;;;;;;5003690;28;20189;-71
2021/04/20 01:13:33;;;;;;;18.30;12.90;;;;;;;;;;5014554;28;20181;-71
2021/04/20 01:16:38;;;;;;;18.00;12.90;;;;;;;;;;5004280;28;20206;-71
2021/04/20 01:19:43;;;;;;;19.17;13.07;;;;;;;;;;5010242;28;20201;-71
2021/04/20 01:22:51;;;;;;;22.50;13.93;;;;;;;;;;5015450;28;20197;-71
2021/04/20 01:25:56;;;;;;;15.97;12.60;;;;;;;;;;4996170;28;20214;-71
2021/04/20 01:29:01;;;;;;;20.43;14.30;;;;;;;;;;4996444;28;20198;-71
2021/04/20 01:32:06;;;;;;;18.83;13.57;;;;;;;;;;4996182;28;20539;-71
2021/04/20 01:35:12;;;;;;;22.80;16.17;;;;;;;;;;5013452;28;20229;-71
2021/04/20 01:38:18;;;;;;;18.83;14.03;;;;;;;;;;5014867;28;20178;-71
2021/04/20 01:41:24;;;;;;;20.60;14.57;;;;;;;;;;5014992;28;20194;-70
2021/04/20 01:44:28;;;;;;;22.07;15.37;;;;;;;;;;5002781;28;20217;-71
2021/04/20 01:47:32;;;;;;;21.10;15.37;;;;;;;;;;4995616;28;20513;-71
2021/04/20 01:50:41;;;;;;;22.03;14.97;;;;;;;;;;4996008;28;20194;-71
2021/04/20 01:53:47;;;;;;;21.30;15.00;;;;;;;;;;5001519;28;20201;-71
2021/04/20 01:56:52;;;;;;;21.47;15.20;;;;;;;;;;5015231;28;20563;-71
2021/04/20 01:59:57;;;;;;;21.60;15.13;;;;;;;;;;5014917;28;20193;-71
2021/04/20 02:03:03;;;;;;;22.20;16.60;;;;;;;;;;5011489;28;20202;-71
2021/04/20 02:06:07;;;;;;;23.67;15.93;;;;;;;;;;4995207;28;20218;-71
2021/04/20 02:09:12;;;;;;;21.97;16.23;;;;;;;;;;4994326;28;20202;-71
2021/04/20 02:12:16;;;;;;;23.67;16.30;;;;;;;;;;4995339;28;20634;-71
2021/04/20 02:15:22;;;;;;;23.27;17.03;;;;;;;;;;4994945;28;20226;-71
2021/04/20 02:18:27;;;;;;;23.87;16.23;;;;;;;;;;4995478;28;20198;-71
2021/04/20 02:21:32;;;;;;;24.50;16.80;;;;;;;;;;4995270;28;20634;-71
2021/04/20 02:24:39;;;;;;;27.97;17.50;;;;;;;;;;5009004;28;20734;-71
2021/04/20 02:27:44;;;;;;;25.13;17.53;;;;;;;;;;5014585;28;20194;-71
2021/04/20 02:30:49;;;;;;;24.50;16.47;;;;;;;;;;5004878;28;20197;-71
2021/04/20 02:33:55;;;;;;;26.97;17.57;;;;;;;;;;5007851;28;20205;-71
2021/04/20 02:37:00;;;;;;;26.10;17.67;;;;;;;;;;5014667;28;20213;-71
2021/04/20 02:40:09;;;;;;;24.27;17.10;;;;;;;;;;5012834;28;20202;-71
2021/04/20 02:43:13;;;;;;;25.30;17.57;;;;;;;;;;5003808;28;20202;-71
2021/04/20 02:46:17;;;;;;;27.23;18.10;;;;;;;;;;4996069;28;20688;-71
2021/04/20 02:49:22;;;;;;;26.30;17.80;;;;;;;;;;5002564;28;20194;-71
2021/04/20 02:52:26;;;;;;;27.10;17.87;;;;;;;;;;4997194;28;20194;-71
2021/04/20 02:55:30;;;;;;;25.80;17.37;;;;;;;;;;5013161;28;20221;-71
2021/04/20 02:58:35;;;;;;;26.83;17.97;;;;;;;;;;4993929;28;20193;-71
2021/04/20 03:01:42;;;;;;;29.13;19.47;;;;;;;;;;5008325;28;20193;-71
2021/04/20 03:04:50;;;;;;;30.00;19.03;;;;;;;;;;4994111;28;20222;-71
2021/04/20 03:07:55;;;;;;;25.17;17.60;;;;;;;;;;5010516;23;20206;-74
2021/04/20 03:11:04;;;;;;;23.53;16.80;;;;;;;;;;5014436;28;20216;-74
2021/04/20 03:14:09;;;;;;;26.97;18.70;;;;;;;;;;5009397;28;20649;-74
2021/04/20 03:17:13;;;;;;;27.17;19.00;;;;;;;;;;5008706;28;20217;-73
2021/04/20 03:20:18;;;;;;;28.57;18.83;;;;;;;;;;5024015;28;20193;-74
2021/04/20 03:23:22;;;;;;;27.37;18.00;;;;;;;;;;4999161;28;20194;-74
2021/04/20 03:26:40;;;;;;;28.47;18.37;;;;;;;;;;4995039;28;20209;-74
2021/04/20 03:29:44;;;;;;;25.97;17.87;;;;;;;;;;5011456;28;20198;-74
2021/04/20 03:33:08;;;;;;;24.17;17.57;;;;;;;;;;5004475;28;20194;-74
2021/04/20 03:36:21;;;;;;;29.10;19.00;;;;;;;;;;5004148;28;20226;-74
2021/04/20 03:39:27;;;;;;;28.00;19.37;;;;;;;;;;5012447;28;20197;-74
2021/04/20 03:42:35;;;;;;;27.53;19.33;;;;;;;;;;5013861;28;20178;-74
2021/04/20 03:45:59;;;;;;;25.77;18.13;;;;;;;;;;5011293;28;20217;-74
2021/04/20 03:49:24;;;;;;;27.63;18.60;;;;;;;;;;5006132;28;20193;-74
2021/04/20 03:52:36;;;;;;;26.57;18.73;;;;;;;;;;5008536;28;20186;-74
2021/04/20 03:55:45;;;;;;;27.87;18.00;;;;;;;;;;5008901;28;20255;-74
2021/04/20 03:58:52;;;;;;;26.83;18.33;;;;;;;;;;5008110;28;20190;-74
2021/04/20 04:02:27;;;;;;;28.00;18.10;;;;;;;;;;5079495;27;20807;-89
2021/04/20 04:05:34;;;;;;;30.73;20.23;;;;;;;;;;5068921;28;20179;-90
2021/04/20 04:08:42;;;;;;;27.60;19.63;;;;;;;;;;5058963;28;20226;-88
2021/04/20 04:12:01;;;;;;;30.20;20.20;;;;;;;;;;5076713;28;20179;-89
2021/04/20 04:15:09;;;;;;;29.83;20.10;;;;;;;;;;5076557;28;20175;-90
2021/04/20 04:18:15;;;;;;;32.23;21.73;;;;;;;;;;5088648;28;20219;-89
2021/04/20 04:21:26;;;;;;;32.23;21.73;;;;;;;;;;5065292;28;20203;-90
2021/04/20 04:24:35;;;;;;;31.83;21.30;;;;;;;;;;5065234;28;20172;-89
2021/04/20 04:27:45;;;;;;;30.60;21.33;;;;;;;;;;5076332;28;20183;-90
2021/04/20 04:30:51;;;;;;;30.90;20.70;;;;;;;;;;5065775;28;20171;-88
2021/04/20 04:33:56;;;;;;;31.10;20.80;;;;;;;;;;5068711;28;20195;-86
2021/04/20 04:37:01;;;;;;;32.67;22.67;;;;;;;;;;5061612;28;20669;-87
2021/04/20 04:40:07;;;;;;;31.47;20.83;;;;;;;;;;5074263;28;20542;-87
2021/04/20 04:43:12;;;;;;;31.70;20.77;;;;;;;;;;5099811;28;20183;-88
2021/04/20 04:46:17;;;;;;;29.87;21.40;;;;;;;;;;5112418;28;20179;-86
2021/04/20 04:49:22;;;;;;;30.60;20.90;;;;;;;;;;5099485;28;20213;-87
2021/04/20 04:52:28;;;;;;;30.90;21.60;;;;;;;;;;5087837;28;20178;-86
2021/04/20 04:55:32;;;;;;;34.27;22.10;;;;;;;;;;5099803;28;20529;-87
2021/04/20 04:58:37;;;;;;;33.87;21.70;;;;;;;;;;5086520;28;20214;-85
2021/04/20 05:01:41;;;;;;;33.57;23.30;;;;;;;;;;5078071;28;20215;-85
2021/04/20 05:04:46;;;;;;;34.37;22.30;;;;;;;;;;5078686;28;20198;-85
2021/04/20 05:07:50;;;;;;;40.57;29.63;;;;;;;;;;5079006;28;20179;-85
2021/04/20 05:11:01;;;;;;;37.67;23.40;;;;;;;;;;5090492;28;20179;-85
2021/04/20 05:14:06;;;;;;;34.40;23.40;;;;;;;;;;5076733;28;20180;-84
2021/04/20 05:17:11;;;;;;;36.10;24.60;;;;;;;;;;5070131;28;20200;-85
2021/04/20 05:20:19;;;;;;;35.70;23.20;;;;;;;;;;5034293;28;20176;-85
2021/04/20 05:23:24;;;;;;;36.17;24.13;;;;;;;;;;5046259;28;20172;-84
2021/04/20 05:26:29;;;;;;;42.50;25.97;;;;;;;;;;5067703;28;20666;-86
2021/04/20 05:29:33;;;;;;;42.63;26.90;;;;;;;;;;5033871;28;20220;-86
2021/04/20 05:32:45;;;;;;;39.40;26.30;;;;;;;;;;5042605;28;20187;-87
2021/04/20 05:35:49;;;;;;;34.07;24.40;;;;;;;;;;5077629;28;20551;-87
2021/04/20 05:38:56;;;;;;;33.27;23.00;;;;;;;;;;5049368;28;20207;-86
2021/04/20 05:42:00;;;;;;;37.37;24.43;;;;;;;;;;5044903;28;20216;-86
2021/04/20 05:45:06;;;;;;;38.43;26.13;;;;;;;;;;5069432;28;20187;-86
2021/04/20 05:48:10;;;;;;;45.17;31.57;;;;;;;;;;5072605;28;20214;-86
2021/04/20 05:51:19;;;;;;;63.97;39.77;;;;;;;;;;5084770;28;20175;-87
2021/04/20 05:54:23;;;;;;;72.77;46.47;;;;;;;;;;5072960;28;20661;-86
2021/04/20 05:57:27;;;;;;;33.67;22.60;;;;;;;;;;5066332;28;20196;-86
2021/04/20 06:00:32;;;;;;;31.13;23.30;;;;;;;;;;5055839;28;20200;-86
2021/04/20 06:03:39;;;;;;;31.10;21.47;;;;;;;;;;5054206;28;20642;-87
2021/04/20 06:06:43;;;;;;;29.37;20.60;;;;;;;;;;5053155;28;20180;-86
2021/04/20 06:09:48;;;;;;;35.23;22.63;;;;;;;;;;5054863;28;20214;-87
2021/04/20 06:12:53;;;;;;;30.90;21.30;;;;;;;;;;5054014;28;20267;-87
2021/04/20 06:15:58;;;;;;;29.90;21.53;;;;;;;;;;5076232;28;20179;-87
2021/04/20 06:19:02;;;;;;;29.13;20.93;;;;;;;;;;5054788;28;20215;-86
2021/04/20 06:22:12;;;;;;;30.67;21.57;;;;;;;;;;5054355;28;20227;-86
2021/04/20 06:25:18;;;;;;;30.40;21.53;;;;;;;;;;5053733;28;20512;-88
2021/04/20 06:28:24;;;;;;;28.93;20.93;;;;;;;;;;5066421;28;20211;-86
2021/04/20 06:31:32;;;;;;;31.37;21.57;;;;;;;;;;5054721;28;20171;-86
2021/04/20 06:34:37;;;;;;;30.43;21.73;;;;;;;;;;5078744;28;20180;-86
2021/04/20 06:37:43;;;;;;;31.80;22.00;;;;;;;;;;5055403;28;20175;-87
2021/04/20 06:40:52;;;;;;;32.10;22.10;;;;;;;;;;5056359;28;20198;-87
2021/04/20 06:44:05;;;;;;;31.67;21.83;;;;;;;;;;5045922;28;20176;-86
2021/04/20 06:47:20;;;;;;;30.17;22.03;;;;;;;;;;5031667;28;20628;-86
2021/04/20 06:50:26;;;;;;;31.23;22.57;;;;;;;;;;5060411;28;20203;-87
2021/04/20 06:53:38;;;;;;;31.83;21.63;;;;;;;;;;5074703;28;20195;-87
2021/04/20 06:57:15;;;;;;;32.27;22.20;;;;;;;;;;5062770;28;20519;-88
2021/04/20 07:00:28;;;;;;;31.33;22.70;;;;;;;;;;5053112;28;20200;-88
2021/04/20 07:03:48;;;;;;;31.50;22.47;;;;;;;;;;5052033;28;20195;-88
2021/04/20 07:07:07;;;;;;;31.63;24.03;;;;;;;;;;5052270;28;20180;-89
2021/04/20 07:10:22;;;;;;;32.77;23.23;;;;;;;;;;5050302;28;20531;-88
2021/04/20 07:13:29;;;;;;;33.13;24.77;;;;;;;;;;5038158;28;20531;-88
2021/04/20 07:16:43;;;;;;;33.63;24.63;;;;;;;;;;5049386;28;20191;-88
2021/04/20 07:20:00;;;;;;;34.70;24.80;;;;;;;;;;5032343;28;20215;-88
2021/04/20 07:23:27;;;;;;;37.27;25.40;;;;;;;;;;5042776;28;20209;-88
2021/04/20 07:27:13;;;;;;;36.87;26.83;;;;;;;;;;5043277;28;20504;-86
2021/04/20 07:30:20;;;;;;;35.00;25.93;;;;;;;;;;5030229;28;20200;-88
2021/04/20 07:33:37;;;;;;;35.10;25.57;;;;;;;;;;5048166;28;20199;-88
2021/04/20 07:37:03;;;;;;;34.10;25.70;;;;;;;;;;5061933;28;20516;-87
2021/04/20 07:40:35;;;;;;;35.77;25.13;;;;;;;;;;5041849;28;20184;-87
2021/04/20 07:44:26;;;;;;;33.70;24.00;;;;;;;;;;5042932;28;20173;-87
2021/04/20 07:47:40;;;;;;;35.87;24.53;;;;;;;;;;5030901;28;20535;-87
2021/04/20 07:50:48;;;;;;;34.57;23.37;;;;;;;;;;5030726;28;20547;-88
2021/04/20 07:54:02;;;;;;;30.17;22.50;;;;;;;;;;5030993;28;20186;-87
2021/04/20 07:57:12;;;;;;;30.47;21.73;;;;;;;;;;5041963;28;20182;-87
2021/04/20 08:00:22;;;;;;;28.47;21.50;;;;;;;;;;5041870;28;20192;-87
2021/04/20 08:03:47;;;;;;;31.77;23.33;;;;;;;;;;5030362;28;20227;-86
2021/04/20 08:06:59;;;;;;;31.00;22.93;;;;;;;;;;5042433;28;20187;-88
2021/04/20 08:10:07;;;;;;;29.20;22.07;;;;;;;;;;5031957;28;20191;-87
2021/04/20 08:13:33;;;;;;;29.80;21.77;;;;;;;;;;5042568;28;20180;-87
2021/04/20 08:16:43;;;;;;;27.00;20.63;;;;;;;;;;5041778;28;20184;-87
2021/04/20 08:20:04;;;;;;;28.13;19.50;;;;;;;;;;5052464;28;20582;-88
2021/04/20 08:23:10;;;;;;;28.20;20.77;;;;;;;;;;5029619;28;20212;-87
2021/04/20 08:26:22;;;;;;;29.13;20.43;;;;;;;;;;5052850;28;20278;-88
2021/04/20 08:29:29;;;;;;;24.87;19.53;;;;;;;;;;5029524;28;20228;-87
2021/04/20 08:32:34;;;;;;;29.43;21.80;;;;;;;;;;5030162;28;20201;-88
2021/04/20 08:35:39;;;;;;;27.70;21.10;;;;;;;;;;5052600;28;20185;-88
2021/04/20 08:38:50;;;;;;;30.93;22.00;;;;;;;;;;5041156;28;20239;-88
2021/04/20 08:47:18;;;;;;;26.10;20.43;;;;;;;;;;5063514;28;20188;-88
2021/04/20 08:50:32;;;;;;;26.33;21.03;;;;;;;;;;5049020;28;20211;-88
2021/04/20 08:59:06;;;;;;;26.90;20.27;;;;;;;;;;5056663;28;20219;-88
2021/04/20 09:02:21;;;;;;;27.13;20.73;;;;;;;;;;5043020;28;20258;-83
2021/04/20 09:05:43;;;;;;;26.33;20.67;;;;;;;;;;5051431;28;20203;-83
2021/04/20 09:08:52;;;;;;;25.03;19.33;;;;;;;;;;5057848;28;20225;-83
2021/04/20 09:11:59;;;;;;;27.97;20.63;;;;;;;;;;5051259;28;20183;-83
2021/04/20 09:15:04;;;;;;;29.73;20.53;;;;;;;;;;5054323;28;20629;-83
2021/04/20 09:18:15;;;;;;;24.90;20.13;;;;;;;;;;5073374;28;20290;-82
2021/04/20 09:21:40;;;;;;;25.37;19.80;;;;;;;;;;5057611;28;20191;-82
2021/04/20 09:24:57;;;;;;;26.33;21.50;;;;;;;;;;5057520;28;20184;-82
2021/04/20 09:28:15;;;;;;;27.67;20.13;;;;;;;;;;5045697;28;20223;-81
2021/04/20 09:31:22;;;;;;;25.00;19.57;;;;;;;;;;5073971;28;20199;-82
2021/04/20 09:34:32;;;;;;;28.40;20.93;;;;;;;;;;5033738;28;20188;-82
2021/04/20 09:37:38;;;;;;;25.53;20.43;;;;;;;;;;5055836;28;20563;-82
2021/04/20 09:40:46;;;;;;;29.20;21.03;;;;;;;;;;5051872;28;20195;-83
2021/04/20 09:43:59;;;;;;;29.20;21.27;;;;;;;;;;5076208;28;20579;-82
2021/04/20 09:47:35;;;;;;;29.13;21.43;;;;;;;;;;5077088;28;20200;-83
2021/04/20 09:50:53;;;;;;;34.27;22.00;;;;;;;;;;5071179;28;20196;-83
2021/04/20 09:54:26;;;;;;;37.03;21.63;;;;;;;;;;5067477;28;20195;-86
2021/04/20 09:57:36;;;;;;;28.03;21.50;;;;;;;;;;5065549;28;20574;-82
2021/04/20 10:00:41;;;;;;;44.23;23.37;;;;;;;;;;5062612;28;20195;-84
2021/04/20 10:03:57;;;;;;;34.30;22.97;;;;;;;;;;5060086;28;20215;-84
2021/04/20 10:07:32;;;;;;;32.90;22.90;;;;;;;;;;5071854;28;20689;-83
2021/04/20 10:10:54;;;;;;;34.00;23.53;;;;;;;;;;5078677;28;20183;-85
2021/04/20 10:14:12;;;;;;;32.60;24.33;;;;;;;;;;5077953;28;20187;-85
2021/04/20 10:17:24;;;;;;;28.97;22.60;;;;;;;;;;5049866;28;20220;-83
2021/04/20 10:20:38;;;;;;;32.43;23.13;;;;;;;;;;5077403;28;20693;-83
2021/04/20 10:24:07;;;;;;;28.60;22.33;;;;;;;;;;5044720;28;20230;-83
2021/04/20 10:27:20;;;;;;;26.03;20.90;;;;;;;;;;5065121;28;20218;-83
2021/04/20 10:30:32;;;;;;;29.33;22.10;;;;;;;;;;5068065;28;20582;-83
2021/04/20 10:33:38;;;;;;;30.03;21.53;;;;;;;;;;5074937;28;20192;-83
2021/04/20 10:36:48;;;;;;;27.03;20.00;;;;;;;;;;5063678;28;20215;-83
2021/04/20 10:39:53;;;;;;;26.83;20.77;;;;;;;;;;5066026;28;20599;-83
2021/04/20 10:43:06;;;;;;;24.67;19.50;;;;;;;;;;5031922;28;20223;-83
2021/04/20 10:46:10;;;;;;;24.30;18.70;;;;;;;;;;5054751;28;20187;-84
2021/04/20 10:49:16;;;;;;;25.03;19.40;;;;;;;;;;5069333;28;20226;-84
2021/04/20 10:52:33;;;;;;;24.43;17.07;;;;;;;;;;5074622;28;20191;-83
2021/04/20 10:55:41;;;;;;;19.00;15.23;;;;;;;;;;5072367;28;20558;-82
2021/04/20 10:58:54;;;;;;;25.20;18.23;;;;;;;;;;5074466;28;20712;-83
2021/04/20 11:02:32;;;;;;;21.67;17.50;;;;;;;;;;5062703;28;20207;-83
2021/04/20 11:05:37;;;;;;;27.53;18.47;;;;;;;;;;5059058;28;20550;-84
2021/04/20 11:08:48;;;;;;;22.60;17.17;;;;;;;;;;5071237;28;20223;-85
2021/04/20 11:11:53;;;;;;;21.73;17.10;;;;;;;;;;5046759;28;20191;-83
2021/04/20 11:14:58;;;;;;;24.23;17.23;;;;;;;;;;5038485;28;20199;-83
2021/04/20 11:18:08;;;;;;;22.70;17.57;;;;;;;;;;5058023;28;20218;-84
2021/04/20 11:21:17;;;;;;;20.23;16.30;;;;;;;;;;5069826;28;20198;-85
2021/04/20 11:24:21;;;;;;;30.93;15.63;;;;;;;;;;5058670;28;20215;-84
2021/04/20 11:27:31;;;;;;;24.67;15.83;;;;;;;;;;5069169;28;20202;-84
2021/04/20 11:30:39;;;;;;;36.43;15.37;;;;;;;;;;5069039;28;20198;-84
2021/04/20 11:33:47;;;;;;;20.43;15.90;;;;;;;;;;5058425;28;20195;-84
2021/04/20 11:37:12;;;;;;;21.47;16.77;;;;;;;;;;5070279;28;20198;-84
2021/04/20 11:40:28;;;;;;;19.63;15.83;;;;;;;;;;5058439;28;20202;-85
2021/04/20 11:43:36;;;;;;;16.77;14.93;;;;;;;;;;5058031;28;20212;-84
2021/04/20 11:46:47;;;;;;;34.70;14.53;;;;;;;;;;5069690;28;20206;-84
2021/04/20 11:50:09;;;;;;;16.67;13.97;;;;;;;;;;5070563;28;20211;-84
2021/04/20 11:53:13;;;;;;;19.43;15.97;;;;;;;;;;5058685;28;20191;-87
2021/04/20 11:56:18;;;;;;;20.63;15.57;;;;;;;;;;5037579;28;20187;-87
2021/04/20 11:59:23;;;;;;;16.37;13.67;;;;;;;;;;5060992;28;20290;-83
2021/04/20 12:02:29;;;;;;;37.20;16.27;;;;;;;;;;5062255;28;20211;-83
2021/04/20 12:05:34;;;;;;;17.40;14.47;;;;;;;;;;5066609;28;20205;-83
2021/04/20 12:08:45;;;;;;;21.00;13.87;;;;;;;;;;5062445;28;20227;-92
2021/04/20 12:11:51;;;;;;;20.97;16.97;;;;;;;;;;5062950;28;20195;-84
2021/04/20 12:14:57;;;;;;;20.40;17.97;;;;;;;;;;5073945;28;20188;-84
2021/04/20 12:18:05;;;;;;;20.00;16.03;;;;;;;;;;5056448;28;20234;-85
2021/04/20 12:21:17;;;;;;;20.70;16.40;;;;;;;;;;5060744;28;20194;-86
2021/04/20 12:24:24;;;;;;;20.80;16.43;;;;;;;;;;5057321;28;20231;-85
2021/04/20 12:27:30;;;;;;;20.23;17.97;;;;;;;;;;5066618;28;20200;-85
2021/04/20 12:30:34;;;;;;;24.97;20.17;;;;;;;;;;5075811;28;20195;-86
2021/04/20 12:33:39;;;;;;;28.73;22.63;;;;;;;;;;5064680;28;20198;-85
2021/04/20 12:36:53;;;;;;;25.47;20.10;;;;;;;;;;5074830;28;20181;-84
2021/04/20 12:40:21;;;;;;;25.83;19.07;;;;;;;;;;5073792;28;20223;-84
2021/04/20 12:43:29;;;;;;;24.40;19.57;;;;;;;;;;5057115;28;20211;-84
2021/04/20 12:46:35;;;;;;;24.60;18.93;;;;;;;;;;5063417;28;20202;-84
2021/04/20 12:49:46;;;;;;;25.33;17.83;;;;;;;;;;5074581;28;20592;-85
2021/04/20 12:52:51;;;;;;;26.47;19.67;;;;;;;;;;5043240;28;20681;-85
2021/04/20 12:55:57;;;;;;;27.23;19.87;;;;;;;;;;5070988;28;20187;-85
2021/04/20 12:59:05;;;;;;;27.07;20.60;;;;;;;;;;5063053;28;20219;-85
2021/04/20 13:02:11;;;;;;;26.07;20.87;;;;;;;;;;5054739;28;20207;-85
2021/04/20 13:05:20;;;;;;;26.87;19.57;;;;;;;;;;5052986;28;20206;-85
2021/04/20 13:08:27;;;;;;;24.27;18.43;;;;;;;;;;5066748;28;20226;-84
2021/04/20 13:11:37;;;;;;;20.93;15.80;;;;;;;;;;5043552;22;20308;-86
2021/04/20 13:14:48;;;;;;;15.30;12.30;;;;;;;;;;4982417;28;20205;-86
2021/04/20 13:17:54;;;;;;;15.50;11.30;;;;;;;;;;4974234;28;20537;-87
2021/04/20 13:21:01;;;;;;;13.83;11.03;;;;;;;;;;4984827;28;20228;-87
2021/04/20 13:24:12;;;;;;;12.90;10.10;;;;;;;;;;4984835;28;20221;-86
2021/04/20 13:27:19;;;;;;;13.30;9.47;;;;;;;;;;4995580;28;20193;-86
2021/04/20 13:30:24;;;;;;;11.23;9.33;;;;;;;;;;4986312;28;20225;-86
2021/04/20 13:33:30;;;;;;;12.27;9.33;;;;;;;;;;4984065;28;20183;-87
2021/04/20 13:36:42;;;;;;;13.50;10.57;;;;;;;;;;4985276;28;20498;-87
2021/04/20 13:39:53;;;;;;;10.53;9.37;;;;;;;;;;4974177;28;20186;-89
2021/04/20 13:43:23;;;;;;;14.47;10.27;;;;;;;;;;4981636;28;20260;-91
2021/04/20 13:46:45;;;;;;;9.50;8.10;;;;;;;;;;4988665;28;20190;-91
2021/04/20 13:49:56;;;;;;;9.63;8.03;;;;;;;;;;4994624;28;20225;-90
2021/04/20 13:53:10;;;;;;;18.53;13.47;;;;;;;;;;4977067;28;20194;-87
2021/04/20 13:56:23;;;;;;;13.13;10.43;;;;;;;;;;4995496;28;20196;-86
2021/04/20 13:59:34;;;;;;;15.40;13.13;;;;;;;;;;4996353;28;20197;-86
2021/04/20 14:02:43;;;;;;;17.27;13.27;;;;;;;;;;4995673;28;20202;-87
2021/04/20 14:05:49;;;;;;;16.80;12.70;;;;;;;;;;4993593;28;20185;-86
2021/04/20 14:09:05;;;;;;;14.53;12.60;;;;;;;;;;4993460;28;20663;-85
2021/04/20 14:12:13;;;;;;;11.27;9.10;;;;;;;;;;4983134;28;20179;-87
2021/04/20 14:15:25;;;;;;;19.57;11.47;;;;;;;;;;4973355;28;20178;-87
2021/04/20 14:18:29;;;;;;;9.87;7.87;;;;;;;;;;4983348;28;20205;-87
2021/04/20 14:21:34;;;;;;;8.40;6.40;;;;;;;;;;4996297;28;20700;-88
2021/04/20 14:24:39;;;;;;;19.70;6.30;;;;;;;;;;4983370;28;20221;-87
2021/04/20 14:27:44;;;;;;;6.47;5.60;;;;;;;;;;4991318;28;20537;-87
2021/04/20 14:30:53;;;;;;;6.30;5.60;;;;;;;;;;4987304;28;20213;-87
2021/04/20 14:34:01;;;;;;;6.73;6.10;;;;;;;;;;4994890;28;20182;-87
2021/04/20 14:37:07;;;;;;;7.50;6.37;;;;;;;;;;4983681;28;20186;-87
2021/04/20 14:40:19;;;;;;;8.00;5.27;;;;;;;;;;4996530;28;20217;-87
2021/04/20 14:43:24;;;;;;;6.87;5.60;;;;;;;;;;4984427;28;20182;-87
2021/04/20 14:46:30;;;;;;;6.90;5.37;;;;;;;;;;4971864;28;20178;-87
2021/04/20 14:49:37;;;;;;;6.23;5.17;;;;;;;;;;4983831;28;20630;-87
2021/04/20 14:52:41;;;;;;;8.87;7.97;;;;;;;;;;4984058;28;20178;-88
2021/04/20 14:55:51;;;;;;;10.23;8.73;;;;;;;;;;4972834;28;20178;-87
2021/04/20 14:59:00;;;;;;;8.63;7.60;;;;;;;;;;4983365;28;20198;-87
2021/04/20 15:02:06;;;;;;;8.60;7.43;;;;;;;;;;4972497;28;20182;-87
2021/04/20 15:05:11;;;;;;;10.47;6.70;;;;;;;;;;4982950;28;20226;-87
2021/04/20 15:08:21;;;;;;;8.73;7.40;;;;;;;;;;4971836;28;20198;-87
2021/04/20 15:11:27;;;;;;;9.10;6.93;;;;;;;;;;4971563;28;20226;-85
2021/04/20 15:14:37;;;;;;;9.37;8.37;;;;;;;;;;4974397;28;20506;-84
2021/04/20 15:17:45;;;;;;;9.97;8.93;;;;;;;;;;4985590;28;20186;-83
2021/04/20 15:20:52;;;;;;;11.93;8.90;;;;;;;;;;4982951;28;20221;-83
2021/04/20 15:24:06;;;;;;;10.83;9.47;;;;;;;;;;4970632;28;20206;-83
2021/04/20 15:27:24;;;;;;;10.53;9.17;;;;;;;;;;4981715;28;20182;-83
2021/04/20 15:30:37;;;;;;;19.20;8.87;;;;;;;;;;4972505;28;20226;-84
2021/04/20 15:33:44;;;;;;;12.70;9.77;;;;;;;;;;4986717;28;20186;-84
2021/04/20 15:36:58;;;;;;;14.17;10.37;;;;;;;;;;4990492;28;20193;-85
2021/04/20 15:40:08;;;;;;;13.43;10.73;;;;;;;;;;5014025;28;20213;-85
2021/04/20 15:43:19;;;;;;;14.03;10.80;;;;;;;;;;5013037;28;20193;-85
2021/04/20 15:46:29;;;;;;;14.37;10.67;;;;;;;;;;4985054;28;20552;-84
2021/04/20 15:49:36;;;;;;;10.47;9.30;;;;;;;;;;4984680;28;20218;-84
2021/04/20 15:52:44;;;;;;;10.93;9.77;;;;;;;;;;4995070;28;20190;-85
2021/04/20 15:55:49;;;;;;;13.43;10.17;;;;;;;;;;4994382;28;20185;-85
2021/04/20 15:59:02;;;;;;;11.63;9.17;;;;;;;;;;5003766;28;20206;-85
2021/04/20 16:02:10;;;;;;;13.23;9.83;;;;;;;;;;4994633;28;20182;-83
2021/04/20 16:05:17;;;;;;;12.03;9.80;;;;;;;;;;4994716;28;20225;-85
2021/04/20 16:08:24;;;;;;;14.53;9.67;;;;;;;;;;5012767;28;20197;-84
2021/04/20 16:11:28;;;;;;;11.97;9.47;;;;;;;;;;5000275;28;20233;-85
2021/04/20 16:14:35;;;;;;;12.90;10.10;;;;;;;;;;5009929;28;20649;-85
2021/04/20 16:17:41;;;;;;;14.23;11.43;;;;;;;;;;4973609;28;20190;-86
2021/04/20 16:20:46;;;;;;;13.80;10.83;;;;;;;;;;4998812;28;20221;-85
2021/04/20 16:23:52;;;;;;;11.70;10.07;;;;;;;;;;4984570;28;20192;-85
2021/04/20 16:27:01;;;;;;;15.90;11.23;;;;;;;;;;4984951;28;20204;-85
2021/04/20 16:30:11;;;;;;;16.40;11.23;;;;;;;;;;5009237;28;20714;-83
2021/04/20 16:33:18;;;;;;;14.87;11.53;;;;;;;;;;5000946;28;20186;-85
2021/04/20 16:36:51;;;;;;;14.33;11.73;;;;;;;;;;4991495;28;20193;-86
2021/04/20 16:40:35;;;;;;;13.97;11.70;;;;;;;;;;5010868;28;20224;-85
2021/04/20 16:44:11;;;;;;;17.37;13.13;;;;;;;;;;4989085;28;20181;-86
2021/04/20 16:47:41;;;;;;;23.93;17.27;;;;;;;;;;4989355;28;20205;-85
2021/04/20 16:50:56;;;;;;;16.50;12.47;;;;;;;;;;4980942;28;20224;-85
2021/04/20 16:54:28;;;;;;;15.17;11.47;;;;;;;;;;4971986;28;20909;-85
2021/04/20 16:58:10;;;;;;;17.00;11.47;;;;;;;;;;5002125;28;20559;-85
2021/04/20 17:01:23;;;;;;;15.93;12.57;;;;;;;;;;4983947;28;20229;-88
2021/04/20 17:04:46;;;;;;;14.03;10.77;;;;;;;;;;4968656;28;20213;-87
2021/04/20 17:08:09;;;;;;;18.53;15.07;;;;;;;;;;4984483;28;20181;-85
2021/04/20 17:11:32;;;;;;;20.87;15.60;;;;;;;;;;4981793;28;20727;-85
2021/04/20 17:14:37;;;;;;;19.10;12.43;;;;;;;;;;4997384;28;20178;-85
2021/04/20 17:18:03;;;;;;;16.50;12.47;;;;;;;;;;4997522;28;20179;-85
2021/04/20 17:21:43;;;;;;;13.67;11.67;;;;;;;;;;4999873;28;20226;-85
2021/04/20 17:24:53;;;;;;;20.73;12.67;;;;;;;;;;4989965;28;20217;-85
2021/04/20 17:28:06;;;;;;;17.00;13.33;;;;;;;;;;4984968;28;20191;-84
2021/04/20 17:31:27;;;;;;;16.03;13.27;;;;;;;;;;4974128;28;20225;-85
2021/04/20 17:34:52;;;;;;;18.50;13.23;;;;;;;;;;4986752;28;20186;-86
2021/04/20 17:38:04;;;;;;;15.77;13.10;;;;;;;;;;4982638;28;20193;-85
2021/04/20 17:42:04;;;;;;;17.07;13.33;;;;;;;;;;4976784;28;20224;-85
2021/04/20 17:45:19;;;;;;;19.30;12.77;;;;;;;;;;4933728;28;20243;-85
2021/04/20 17:48:52;;;;;;;17.27;13.77;;;;;;;;;;4980693;28;20182;-85
2021/04/20 17:52:19;;;;;;;15.73;12.87;;;;;;;;;;4997068;28;20186;-85
2021/04/20 17:55:51;;;;;;;17.13;13.53;;;;;;;;;;5008905;28;20193;-85
2021/04/20 17:59:23;;;;;;;16.40;12.23;;;;;;;;;;5019173;28;20202;-85
2021/04/20 18:03:04;;;;;;;16.13;12.90;;;;;;;;;;4983666;28;20189;-85
2021/04/20 18:06:40;;;;;;;16.60;11.93;;;;;;;;;;4985049;28;20206;-84
2021/04/20 18:09:47;;;;;;;15.50;12.07;;;;;;;;;;4989540;28;20185;-85
2021/04/20 18:13:04;;;;;;;14.83;11.33;;;;;;;;;;4985611;28;20190;-86
2021/04/20 18:16:53;;;;;;;13.40;10.60;;;;;;;;;;4987346;28;20199;-85
2021/04/20 18:20:15;;;;;;;13.87;10.70;;;;;;;;;;4985141;28;20214;-85
2021/04/20 18:24:01;;;;;;;14.70;10.60;;;;;;;;;;4974293;28;20205;-85
2021/04/20 18:27:34;;;;;;;13.13;10.17;;;;;;;;;;4993078;28;20189;-85
2021/04/20 18:30:52;;;;;;;15.70;10.87;;;;;;;;;;4976090;28;20217;-84
2021/04/20 18:34:06;;;;;;;12.90;10.37;;;;;;;;;;4990970;28;20281;-85
2021/04/20 18:37:16;;;;;;;14.00;10.83;;;;;;;;;;4970929;28;20170;-85
2021/04/20 18:41:09;;;;;;;14.20;11.07;;;;;;;;;;4974012;28;20217;-85
2021/04/20 18:44:26;;;;;;;12.97;10.17;;;;;;;;;;4991027;28;20190;-84
2021/04/20 18:48:07;;;;;;;13.60;10.07;;;;;;;;;;4989659;28;20186;-84